createdAt,value
2023-07-19T00:03:53.961Z,53.79
2023-07-19T00:08:47.451Z,52.66
2023-07-19T00:13:39.477Z,52.40
2023-07-19T00:18:31.575Z,52.60
2023-07-19T00:23:24.792Z,53.75
2023-07-19T00:28:18.122Z,54.39
2023-07-19T00:33:11.946Z,54.65
2023-07-19T00:38:04.266Z,54.65
2023-07-19T00:42:58.452Z,54.56
2023-07-19T00:47:56.599Z,53.83
2023-07-19T00:52:49.502Z,53.85
2023-07-19T00:57:42.266Z,53.38
2023-07-19T01:02:36.284Z,53.43
2023-07-19T01:07:30.167Z,53.84
2023-07-19T01:12:23.496Z,54.34
2023-07-19T01:17:16.343Z,53.76
2023-07-19T01:22:11.180Z,54.45
2023-07-19T01:27:20.733Z,54.43
2023-07-19T01:32:14.935Z,55.14
2023-07-19T01:37:13.135Z,55.34
2023-07-19T01:42:07.246Z,55.49
2023-07-19T01:47:01.044Z,55.92
2023-07-19T01:51:56.517Z,56.16
2023-07-19T01:56:48.902Z,56.07
2023-07-19T02:01:41.047Z,56.64
2023-07-19T02:06:36.495Z,57.54
2023-07-19T02:11:28.811Z,57.65
2023-07-19T02:16:20.975Z,57.65
2023-07-19T02:21:15.417Z,57.99
2023-07-19T02:26:07.266Z,57.77
2023-07-19T02:31:03.287Z,57.85
2023-07-19T02:35:56.656Z,57.18
2023-07-19T02:40:49.964Z,57.03
2023-07-19T02:45:43.453Z,57.50
2023-07-19T02:50:35.785Z,57.68
2023-07-19T02:55:28.975Z,57.79
2023-07-19T03:00:21.586Z,57.61
2023-07-19T03:05:13.625Z,57.35
2023-07-19T03:10:07.651Z,57.69
2023-07-19T03:15:01.102Z,57.06
2023-07-19T03:19:54.049Z,56.65
2023-07-19T03:24:46.865Z,56.48
2023-07-19T03:29:44.328Z,55.94
2023-07-19T03:34:37.402Z,55.70
2023-07-19T03:39:30.454Z,55.50
2023-07-19T03:44:23.524Z,55.12
2023-07-19T03:49:17.574Z,55.62
2023-07-19T03:54:11.350Z,55.75
2023-07-19T03:59:04.130Z,54.97
2023-07-19T04:03:58.385Z,54.50
2023-07-19T04:08:50.778Z,54.30
2023-07-19T04:13:42.952Z,54.01
2023-07-19T04:18:35.993Z,55.34
2023-07-19T04:23:29.096Z,54.25
2023-07-19T04:28:24.526Z,53.78
2023-07-19T04:33:16.807Z,53.04
2023-07-19T04:38:11.135Z,52.33
2023-07-19T04:43:05.965Z,51.48
2023-07-19T04:48:00.403Z,50.61
2023-07-19T04:52:55.288Z,49.22
2023-07-19T04:57:49.488Z,47.19
2023-07-19T05:02:43.284Z,47.27
2023-07-19T05:07:38.480Z,46.70
2023-07-19T05:12:35.978Z,46.34
2023-07-19T05:17:29.977Z,45.71
2023-07-19T05:22:23.898Z,45.75
2023-07-19T05:27:18.243Z,45.62
2023-07-19T05:32:10.460Z,45.43
2023-07-19T05:37:05.559Z,45.31
2023-07-19T05:41:58.858Z,45.08
2023-07-19T05:46:55.682Z,45.65
2023-07-19T05:51:48.509Z,44.20
2023-07-19T05:56:41.851Z,43.91
2023-07-19T06:01:35.286Z,43.65
2023-07-19T06:06:29.710Z,42.82
2023-07-19T06:11:22.065Z,43.22
2023-07-19T06:16:14.743Z,42.94
2023-07-19T06:21:07.005Z,42.70
2023-07-19T06:25:59.404Z,42.60
2023-07-19T06:30:51.992Z,42.53
2023-07-19T06:35:45.099Z,41.86
2023-07-19T06:40:37.466Z,41.63
2023-07-19T06:45:29.916Z,43.06
2023-07-19T06:50:25.244Z,43.72
2023-07-19T06:55:19.626Z,42.59
2023-07-19T07:00:12.021Z,42.16
2023-07-19T07:05:04.377Z,41.43
2023-07-19T07:09:59.136Z,41.36
2023-07-19T07:14:52.016Z,40.09
2023-07-19T07:19:43.861Z,39.50
2023-07-19T07:24:37.458Z,37.92
2023-07-19T07:29:31.010Z,37.11
2023-07-19T07:34:25.215Z,37.30
2023-07-19T07:39:17.886Z,36.79
2023-07-19T07:44:09.994Z,36.01
2023-07-19T07:49:02.157Z,34.23
2023-07-19T07:53:55.554Z,32.00
2023-07-19T07:58:48.760Z,30.52
2023-07-19T08:03:42.536Z,32.49
2023-07-19T08:08:34.947Z,31.46
2023-07-19T08:13:26.877Z,29.74
2023-07-19T08:18:19.170Z,28.41
2023-07-19T08:23:12.137Z,28.71
2023-07-19T08:28:08.499Z,29.75
2023-07-19T08:33:03.139Z,30.87
2023-07-19T08:37:55.516Z,32.45
2023-07-19T08:42:52.538Z,32.67
2023-07-19T08:47:47.621Z,32.37
2023-07-19T08:52:44.014Z,32.06
2023-07-19T08:57:42.433Z,31.61
2023-07-19T09:02:34.841Z,31.52
2023-07-19T09:07:28.047Z,30.43
2023-07-19T09:12:24.792Z,28.52
2023-07-19T09:17:18.541Z,31.47
2023-07-19T09:22:11.144Z,34.34
2023-07-19T09:27:06.745Z,36.19
2023-07-19T09:32:01.044Z,35.58
2023-07-19T09:36:55.389Z,34.78
2023-07-19T09:41:48.360Z,32.94
2023-07-19T09:46:43.011Z,31.58
2023-07-19T09:51:37.154Z,30.27
2023-07-19T09:56:33.121Z,29.10
2023-07-19T10:01:26.034Z,27.21
2023-07-19T10:06:18.993Z,28.77
2023-07-19T10:11:26.552Z,28.77
2023-07-19T10:16:25.947Z,28.73
2023-07-19T10:21:20.610Z,28.05
2023-07-19T10:26:14.298Z,27.39
2023-07-19T10:31:26.591Z,27.06
2023-07-19T10:36:21.734Z,26.83
2023-07-19T10:41:23.047Z,27.26
2023-07-19T10:46:18.716Z,27.19
2023-07-19T10:51:13.022Z,27.69
2023-07-19T10:56:06.586Z,27.36
2023-07-19T11:00:58.662Z,27.09
2023-07-19T11:05:55.555Z,26.43
2023-07-19T11:10:49.677Z,26.60
2023-07-19T11:15:48.521Z,28.57
2023-07-19T11:20:40.854Z,29.30
2023-07-19T11:25:34.755Z,29.46
2023-07-19T11:30:39.497Z,29.47
2023-07-19T11:35:31.959Z,29.22
2023-07-19T11:40:28.220Z,28.29
2023-07-19T11:45:23.062Z,28.11
2023-07-19T11:50:15.944Z,27.67
2023-07-19T11:55:12.479Z,27.68
2023-07-19T12:00:06.953Z,28.28
2023-07-19T12:04:59.628Z,27.22
2023-07-19T12:09:52.523Z,27.28
2023-07-19T12:14:45.664Z,27.57
2023-07-19T12:19:41.506Z,27.17
2023-07-19T12:24:33.626Z,26.03
2023-07-19T12:29:27.160Z,25.97
2023-07-19T12:34:21.908Z,26.84
2023-07-19T12:39:16.956Z,27.90
2023-07-19T12:44:13.196Z,27.51
2023-07-19T12:49:05.471Z,27.25
2023-07-19T12:54:00.487Z,27.05
2023-07-19T12:58:53.620Z,27.22
2023-07-19T13:03:46.416Z,26.79
2023-07-19T13:08:38.968Z,26.63
2023-07-19T13:13:37.081Z,26.49
2023-07-19T13:18:31.671Z,26.75
2023-07-19T13:23:23.834Z,25.86
2023-07-19T13:28:17.282Z,25.22
2023-07-19T13:33:12.466Z,25.19
2023-07-19T13:38:07.734Z,25.35
2023-07-19T13:43:00.605Z,25.37
2023-07-19T13:47:54.639Z,26.29
2023-07-19T13:52:48.341Z,26.00
2023-07-19T13:57:40.586Z,26.24
2023-07-19T14:02:35.382Z,26.21
2023-07-19T14:07:29.992Z,26.48
2023-07-19T14:12:35.289Z,26.07
2023-07-19T14:17:29.616Z,27.75
2023-07-19T14:22:23.306Z,27.58
2023-07-19T14:27:17.808Z,27.67
2023-07-19T14:32:11.668Z,28.58
2023-07-19T14:37:06.332Z,27.30
2023-07-19T14:42:00.086Z,27.04
2023-07-19T14:46:53.535Z,27.89
2023-07-19T14:51:48.961Z,27.46
2023-07-19T14:56:41.407Z,27.88
2023-07-19T15:01:34.917Z,28.72
2023-07-19T15:06:27.571Z,28.80
2023-07-19T15:11:20.371Z,28.44
2023-07-19T15:16:12.653Z,28.91
2023-07-19T15:21:04.913Z,29.44
2023-07-19T15:26:00.392Z,29.96
2023-07-19T15:30:54.779Z,29.96
2023-07-19T15:35:49.409Z,31.41
2023-07-19T15:40:43.123Z,31.82
2023-07-19T15:45:38.941Z,31.25
2023-07-19T15:50:35.341Z,30.89
2023-07-19T15:55:29.765Z,30.44
2023-07-19T16:00:23.521Z,29.87
2023-07-19T16:05:17.806Z,29.81
2023-07-19T16:10:11.232Z,31.47
2023-07-19T16:15:06.988Z,31.73
2023-07-19T16:20:00.323Z,31.40
2023-07-19T16:24:52.943Z,32.13
2023-07-19T16:29:46.070Z,32.09
2023-07-19T16:34:44.601Z,31.88
2023-07-19T16:39:38.182Z,32.81
2023-07-19T16:44:31.377Z,33.49
2023-07-19T16:49:25.806Z,34.10
2023-07-19T16:54:19.810Z,34.24
2023-07-19T16:59:13.602Z,34.57
2023-07-19T17:04:05.996Z,35.61
2023-07-19T17:09:02.383Z,37.51
2023-07-19T17:13:54.985Z,38.54
2023-07-19T17:18:56.268Z,38.13
2023-07-19T17:23:59.748Z,37.62
2023-07-19T17:28:53.808Z,37.27
2023-07-19T17:33:46.360Z,38.64
2023-07-19T17:38:42.535Z,38.79
2023-07-19T17:43:39.850Z,38.81
2023-07-19T17:48:39.941Z,38.73
2023-07-19T17:53:40.929Z,40.04
2023-07-19T17:58:33.483Z,39.74
2023-07-19T18:03:27.702Z,40.44
2023-07-19T18:08:23.992Z,40.81
2023-07-19T18:13:19.500Z,40.30
2023-07-19T18:18:12.778Z,40.99
2023-07-19T18:28:30.510Z,42.36
2023-07-19T18:33:25.238Z,43.04
2023-07-19T18:38:23.620Z,43.29
2023-07-19T18:43:22.621Z,43.64
2023-07-19T18:48:23.779Z,43.47
2023-07-19T18:53:23.891Z,43.61
2023-07-19T18:58:25.221Z,43.62
2023-07-19T19:03:18.882Z,43.30
2023-07-19T19:08:41.928Z,43.46
2023-07-19T19:29:24.875Z,45.73
2023-07-19T19:34:32.201Z,45.47
2023-07-19T19:39:29.980Z,45.57
2023-07-19T19:55:10.531Z,47.53
2023-07-19T20:05:56.884Z,48.58
2023-07-19T20:11:10.046Z,48.20
2023-07-19T20:16:11.826Z,48.06
2023-07-19T20:26:25.901Z,47.82
2023-07-19T20:36:48.953Z,47.57
2023-07-19T20:42:17.206Z,48.12
2023-07-19T20:47:28.324Z,47.53
2023-07-19T20:52:26.373Z,47.77
2023-07-19T20:57:22.146Z,48.94
2023-07-19T21:02:20.079Z,48.93
2023-07-19T21:07:43.291Z,50.07
2023-07-19T21:12:38.257Z,50.42
2023-07-19T21:17:37.828Z,50.88
2023-07-19T21:22:46.223Z,51.37
2023-07-19T21:27:45.399Z,51.64
2023-07-19T21:32:39.831Z,52.50
2023-07-19T21:43:14.109Z,53.76
2023-07-19T21:48:08.256Z,53.22
2023-07-19T21:53:03.420Z,53.54
2023-07-19T21:57:57.097Z,53.91
2023-07-19T22:02:53.717Z,53.98
2023-07-19T22:07:48.225Z,54.94
2023-07-19T22:12:42.175Z,55.30
2023-07-19T22:17:34.577Z,54.57
2023-07-19T22:22:29.495Z,53.74
2023-07-19T22:27:21.770Z,53.61
2023-07-19T22:32:15.503Z,54.11
2023-07-19T22:37:07.520Z,54.79
2023-07-19T22:42:22.719Z,55.90
2023-07-19T22:47:17.564Z,56.09
2023-07-19T22:52:12.133Z,56.03
2023-07-19T22:57:04.944Z,56.30
2023-07-19T23:01:59.868Z,57.26
2023-07-19T23:06:54.822Z,57.50
2023-07-19T23:11:47.017Z,57.85
2023-07-19T23:16:39.215Z,58.49
2023-07-19T23:21:33.919Z,58.99
2023-07-19T23:26:31.228Z,59.18
2023-07-19T23:31:26.165Z,58.83
2023-07-19T23:36:25.306Z,59.36
2023-07-19T23:41:18.432Z,59.83
2023-07-19T23:46:19.795Z,60.56
2023-07-19T23:51:12.958Z,59.18
2023-07-19T23:56:09.498Z,59.13
